Time;durP1;ratioP1;P1;durP2;ratioP2;P2;SDS_P1;SDS_P2;PMS_P1;PMS_P2;Temp;Humidity;BMP_temperature;BMP_pressure;BME280_temperature;BME280_humidity;BME280_pressure;Samples;Min_cycle;Max_cycle;Signal;HPM_P1;HPM_P2
2023/04/09 00:01:54;;;;;;;0.20;0.20;;;1.90;99.90;;;;;;5078124;28;20474;-73
2023/04/09 00:04:21;;;;;;;0.20;0.20;;;1.80;99.90;;;;;;5077686;28;20032;-72
2023/04/09 00:06:46;;;;;;;0.20;0.20;;;1.80;99.90;;;;;;5077946;28;20043;-73
2023/04/09 00:09:12;;;;;;;0.30;0.30;;;1.80;99.90;;;;;;5077697;28;20108;-73
2023/04/09 00:11:38;;;;;;;0.20;0.20;;;1.80;99.90;;;;;;5078078;28;20385;-73
2023/04/09 00:14:03;;;;;;;0.20;0.20;;;1.80;99.90;;;;;;5098104;22;20049;-74
2023/04/09 00:16:29;;;;;;;0.20;0.20;;;1.80;99.90;;;;;;5035672;28;20021;-74
2023/04/09 00:18:55;;;;;;;0.20;0.20;;;1.80;99.90;;;;;;5037688;28;20372;-74
2023/04/09 00:21:20;;;;;;;0.22;0.22;;;1.80;99.90;;;;;;5034447;28;20053;-74
2023/04/09 00:23:49;;;;;;;0.22;0.22;;;1.80;99.90;;;;;;5046357;28;20053;-74
2023/04/09 00:26:16;;;;;;;0.20;0.20;;;1.80;99.90;;;;;;5055244;28;20032;-74
2023/04/09 00:28:42;;;;;;;0.20;0.20;;;1.80;99.90;;;;;;5043806;28;20390;-74
2023/04/09 00:31:08;;;;;;;0.30;0.30;;;1.80;99.90;;;;;;5067874;28;20029;-74
2023/04/09 00:33:34;;;;;;;0.20;0.20;;;1.80;99.90;;;;;;5086917;22;20022;-74
2023/04/09 00:36:07;;;;;;;0.20;0.20;;;1.90;99.90;;;;;;5055503;28;20538;-74
2023/04/09 00:38:38;;;;;;;0.30;0.30;;;1.80;99.90;;;;;;5034341;28;20517;-74
2023/04/09 00:41:06;;;;;;;0.20;0.20;;;1.90;99.90;;;;;;5050924;28;20122;-74
2023/04/09 00:43:32;;;;;;;0.20;0.20;;;1.90;99.90;;;;;;5037242;28;20027;-74
2023/04/09 00:45:58;;;;;;;0.20;0.20;;;1.80;99.90;;;;;;5055228;28;20021;-74
2023/04/09 00:48:24;;;;;;;0.30;0.30;;;1.80;99.90;;;;;;5055037;28;20028;-74
2023/04/09 00:50:49;;;;;;;0.30;0.30;;;1.70;99.90;;;;;;5054974;28;20026;-74
2023/04/09 00:53:16;;;;;;;0.30;0.30;;;1.70;99.90;;;;;;5036800;28;20033;-74
2023/04/09 00:55:41;;;;;;;0.20;0.20;;;1.70;99.90;;;;;;5055117;28;20025;-74
2023/04/09 00:58:07;;;;;;;0.25;0.25;;;1.80;99.90;;;;;;5054833;28;20100;-74
2023/04/09 01:00:32;;;;;;;0.20;0.20;;;1.80;99.90;;;;;;5054949;28;20029;-74
2023/04/09 01:02:59;;;;;;;0.30;0.30;;;1.80;99.90;;;;;;5031533;28;20124;-74
2023/04/09 01:05:35;;;;;;;0.30;0.30;;;1.80;99.90;;;;;;5038331;23;20556;-74
2023/04/09 01:08:14;;;;;;;0.30;0.30;;;1.80;99.90;;;;;;5034336;28;20049;-74
2023/04/09 01:10:51;;;;;;;0.17;0.17;;;1.80;99.90;;;;;;5016899;28;20480;-73
2023/04/09 01:13:29;;;;;;;0.20;0.20;;;1.70;99.90;;;;;;5014669;28;20022;-74
2023/04/09 01:15:57;;;;;;;0.20;0.20;;;1.70;99.90;;;;;;5015032;28;20415;-74
2023/04/09 01:18:31;;;;;;;0.30;0.30;;;1.70;99.90;;;;;;5053268;28;20017;-73
2023/04/09 01:21:08;;;;;;;0.30;0.30;;;1.70;99.90;;;;;;5053870;28;20065;-74
2023/04/09 01:24:07;;;;;;;0.20;0.20;;;1.70;99.90;;;;;;5115079;22;21730;-73
2023/04/09 01:26:52;;;;;;;0.20;0.20;;;1.70;99.90;;;;;;5054343;28;20028;-74
2023/04/09 01:29:20;;;;;;;0.22;0.22;;;1.70;99.90;;;;;;5054884;28;20471;-73
2023/04/09 01:31:46;;;;;;;0.30;0.30;;;1.60;99.90;;;;;;5045695;28;20040;-74
2023/04/09 01:34:13;;;;;;;0.20;0.20;;;1.60;99.90;;;;;;5034281;28;20036;-73
2023/04/09 01:36:40;;;;;;;0.20;0.20;;;1.60;99.90;;;;;;5053541;28;20029;-74
2023/04/09 01:39:06;;;;;;;0.20;0.20;;;1.70;99.90;;;;;;5054314;28;20393;-73
2023/04/09 01:41:33;;;;;;;0.25;0.25;;;1.70;99.90;;;;;;5044402;28;20033;-73
2023/04/09 01:44:00;;;;;;;0.20;0.20;;;1.70;99.90;;;;;;5033687;28;20033;-73
2023/04/09 01:46:26;;;;;;;0.30;0.30;;;1.80;99.90;;;;;;5024527;28;20032;-74
2023/04/09 01:48:52;;;;;;;0.20;0.20;;;1.80;99.90;;;;;;5054131;28;20021;-73
2023/04/09 01:51:18;;;;;;;0.30;0.30;;;1.80;99.90;;;;;;5053810;28;20032;-74
2023/04/09 01:53:47;;;;;;;0.20;0.20;;;1.80;99.90;;;;;;5053041;28;20021;-74
2023/04/09 01:56:12;;;;;;;0.20;0.20;;;1.70;99.90;;;;;;5054081;28;20021;-74
2023/04/09 01:58:39;;;;;;;0.30;0.30;;;1.60;99.90;;;;;;5053030;28;20033;-74
2023/04/09 02:01:34;;;;;;;0.28;0.28;;;1.70;99.90;;;;;;5054114;28;20436;-73
2023/04/09 02:04:03;;;;;;;0.20;0.20;;;1.70;99.90;;;;;;5054325;28;20036;-74
2023/04/09 02:06:52;;;;;;;0.30;0.30;;;1.60;99.90;;;;;;5054233;28;20103;-74
2023/04/09 02:09:20;;;;;;;0.30;0.30;;;1.60;99.90;;;;;;5053338;28;20521;-73
2023/04/09 02:11:47;;;;;;;0.20;0.20;;;1.60;99.90;;;;;;5053868;28;20037;-73
2023/04/09 02:14:15;;;;;;;0.20;0.20;;;1.50;99.90;;;;;;5035222;23;20045;-73
2023/04/09 02:16:41;;;;;;;0.20;0.20;;;1.50;99.90;;;;;;5034208;28;20079;-73
2023/04/09 02:19:07;;;;;;;0.20;0.20;;;1.50;99.90;;;;;;5033536;28;20387;-74
2023/04/09 02:21:32;;;;;;;0.20;0.20;;;1.40;99.90;;;;;;5033828;28;20035;-73
2023/04/09 02:23:58;;;;;;;0.30;0.30;;;1.40;99.90;;;;;;5033962;28;20025;-74
2023/04/09 02:26:24;;;;;;;0.20;0.20;;;1.40;99.90;;;;;;5033398;28;20100;-74
2023/04/09 02:28:49;;;;;;;0.20;0.20;;;1.40;99.90;;;;;;5033779;28;20029;-74
2023/04/09 02:31:18;;;;;;;0.30;0.30;;;1.30;99.90;;;;;;5015135;28;20045;-74
2023/04/09 02:33:44;;;;;;;0.30;0.30;;;1.40;99.90;;;;;;5033831;28;20029;-73
2023/04/09 02:36:13;;;;;;;0.30;0.30;;;1.30;99.90;;;;;;5015920;28;20025;-73
2023/04/09 02:38:41;;;;;;;0.30;0.30;;;1.30;99.90;;;;;;5033381;28;20026;-73
2023/04/09 02:41:07;;;;;;;0.20;0.20;;;1.30;99.90;;;;;;5033550;28;20034;-74
2023/04/09 02:43:33;;;;;;;0.30;0.30;;;1.30;99.90;;;;;;5033626;28;20072;-74
2023/04/09 02:45:59;;;;;;;0.20;0.20;;;1.20;99.90;;;;;;5033490;28;20033;-73
2023/04/09 02:48:24;;;;;;;0.20;0.20;;;1.20;99.90;;;;;;5032999;28;20029;-73
2023/04/09 02:50:52;;;;;;;0.20;0.20;;;1.20;99.90;;;;;;5033362;28;20026;-73
2023/04/09 02:53:20;;;;;;;0.20;0.20;;;1.10;99.90;;;;;;5033590;28;20028;-73
2023/04/09 02:55:46;;;;;;;0.25;0.25;;;1.10;99.90;;;;;;5032084;28;20494;-74
2023/04/09 02:58:11;;;;;;;0.20;0.20;;;1.00;99.90;;;;;;5032991;28;20026;-73
2023/04/09 03:00:37;;;;;;;0.20;0.20;;;1.00;99.90;;;;;;5033417;28;20025;-73
2023/04/09 03:03:05;;;;;;;0.30;0.30;;;1.00;99.90;;;;;;5033709;28;20022;-73
2023/04/09 03:05:30;;;;;;;0.30;0.30;;;1.00;99.90;;;;;;5033206;28;20398;-73
2023/04/09 03:07:56;;;;;;;0.30;0.30;;;0.90;99.90;;;;;;5032042;28;20025;-73
2023/04/09 03:10:21;;;;;;;0.20;0.20;;;0.80;99.90;;;;;;5033197;28;20029;-73
2023/04/09 03:12:47;;;;;;;0.20;0.20;;;0.70;99.90;;;;;;5032827;28;20017;-73
2023/04/09 03:15:13;;;;;;;0.30;0.30;;;0.60;99.90;;;;;;5033108;28;20490;-73
2023/04/09 03:17:39;;;;;;;0.20;0.20;;;0.60;99.90;;;;;;5033156;28;20064;-73
2023/04/09 03:20:06;;;;;;;0.20;0.20;;;0.60;99.90;;;;;;5031351;28;20040;-73
2023/04/09 03:22:36;;;;;;;0.30;0.30;;;0.60;99.90;;;;;;5033253;28;20403;-73
2023/04/09 03:25:02;;;;;;;0.30;0.30;;;0.60;99.90;;;;;;5033201;28;20100;-73
2023/04/09 03:27:28;;;;;;;0.30;0.30;;;0.60;99.90;;;;;;5033141;28;20074;-73
2023/04/09 03:29:57;;;;;;;0.20;0.20;;;0.50;99.90;;;;;;5030114;28;20033;-74
2023/04/09 03:32:22;;;;;;;0.20;0.20;;;0.50;99.90;;;;;;5026106;28;20056;-73
2023/04/09 03:34:48;;;;;;;0.30;0.30;;;0.60;99.90;;;;;;5013525;28;20026;-73
2023/04/09 03:37:13;;;;;;;0.20;0.20;;;0.70;99.90;;;;;;5044244;28;20070;-73
2023/04/09 03:39:41;;;;;;;0.20;0.20;;;0.80;99.90;;;;;;5052795;28;20479;-73
2023/04/09 03:42:09;;;;;;;0.30;0.30;;;0.70;99.90;;;;;;5053239;28;20036;-73
2023/04/09 03:44:34;;;;;;;0.20;0.20;;;0.70;99.90;;;;;;5054284;22;20106;-74
2023/04/09 03:47:00;;;;;;;0.30;0.30;;;0.70;99.90;;;;;;5056212;28;20478;-73
2023/04/09 03:49:25;;;;;;;0.20;0.20;;;0.70;99.90;;;;;;5056453;28;20032;-74
2023/04/09 03:51:51;;;;;;;0.25;0.25;;;0.70;99.90;;;;;;5037731;28;20072;-73
2023/04/09 03:54:16;;;;;;;0.25;0.25;;;0.60;99.90;;;;;;5056324;28;20071;-73
2023/04/09 03:56:42;;;;;;;0.20;0.20;;;0.60;99.90;;;;;;5056479;28;20021;-73
2023/04/09 03:59:07;;;;;;;0.20;0.20;;;0.70;99.90;;;;;;5056362;28;20028;-73
2023/04/09 04:01:33;;;;;;;0.20;0.20;;;1.00;99.90;;;;;;5056241;28;20165;-74
2023/04/09 04:03:59;;;;;;;0.30;0.30;;;1.20;99.90;;;;;;5062986;22;20048;-74
2023/04/09 04:06:24;;;;;;;0.30;0.30;;;1.40;99.90;;;;;;5054188;28;20044;-74
2023/04/09 04:08:51;;;;;;;0.20;0.20;;;1.50;99.90;;;;;;5056140;28;20096;-73
2023/04/09 04:11:16;;;;;;;0.10;0.10;;;1.60;99.90;;;;;;5056060;28;20029;-74
2023/04/09 04:13:42;;;;;;;0.20;0.20;;;1.60;99.90;;;;;;5051558;28;20030;-74
2023/04/09 04:16:08;;;;;;;0.30;0.30;;;1.60;99.90;;;;;;5018206;28;20021;-73
2023/04/09 04:18:35;;;;;;;0.20;0.20;;;1.60;99.90;;;;;;5045578;28;20064;-74
2023/04/09 04:21:00;;;;;;;0.30;0.30;;;1.60;99.90;;;;;;5055439;28;20057;-74
2023/04/09 04:23:26;;;;;;;0.20;0.20;;;1.60;99.90;;;;;;5052368;28;20021;-73
2023/04/09 04:25:56;;;;;;;0.28;0.28;;;1.60;99.90;;;;;;5035761;28;20391;-74
2023/04/09 04:28:22;;;;;;;0.20;0.20;;;1.60;99.90;;;;;;5035713;28;20014;-74
2023/04/09 04:30:47;;;;;;;0.20;0.20;;;1.60;99.90;;;;;;5035441;28;20029;-74
2023/04/09 04:33:13;;;;;;;0.20;0.20;;;1.70;99.90;;;;;;5035171;28;20585;-74
2023/04/09 04:35:39;;;;;;;0.20;0.20;;;1.70;99.90;;;;;;5035752;28;20029;-74
2023/04/09 04:38:04;;;;;;;0.20;0.20;;;1.60;99.90;;;;;;5018089;28;20045;-74
2023/04/09 04:40:30;;;;;;;0.20;0.20;;;1.60;99.90;;;;;;5035692;28;20087;-74
2023/04/09 04:42:55;;;;;;;0.20;0.20;;;1.70;99.90;;;;;;5035686;28;20064;-74
2023/04/09 04:45:21;;;;;;;0.20;0.20;;;1.70;99.90;;;;;;5035049;28;20029;-74
2023/04/09 04:47:46;;;;;;;0.20;0.20;;;1.70;99.90;;;;;;5035250;28;20033;-74
2023/04/09 04:50:12;;;;;;;0.20;0.20;;;1.80;99.90;;;;;;5035240;28;20116;-74
2023/04/09 04:52:39;;;;;;;0.30;0.30;;;1.80;99.90;;;;;;5035359;28;20025;-74
2023/04/09 04:55:05;;;;;;;0.28;0.28;;;1.90;99.90;;;;;;5034369;28;20071;-74
2023/04/09 04:57:33;;;;;;;0.20;0.20;;;2.00;99.90;;;;;;5048107;28;20053;-74
2023/04/09 04:59:58;;;;;;;0.20;0.20;;;2.00;99.90;;;;;;5036368;28;20028;-74
2023/04/09 05:02:24;;;;;;;0.20;0.20;;;2.00;99.90;;;;;;5037348;28;20389;-74
2023/04/09 05:04:49;;;;;;;0.30;0.30;;;2.00;99.90;;;;;;5054788;28;20111;-74
2023/04/09 05:07:15;;;;;;;0.20;0.20;;;2.10;99.90;;;;;;5054790;28;20029;-74
2023/04/09 05:09:41;;;;;;;0.30;0.30;;;2.10;99.90;;;;;;5053312;28;20031;-74
2023/04/09 05:12:07;;;;;;;0.30;0.30;;;2.20;99.90;;;;;;5036780;28;20022;-74
2023/04/09 05:14:33;;;;;;;0.30;0.30;;;2.30;99.90;;;;;;5034501;28;20023;-75
2023/04/09 05:16:59;;;;;;;0.20;0.20;;;2.30;99.90;;;;;;5041537;28;20112;-74
2023/04/09 05:19:27;;;;;;;0.20;0.20;;;2.30;99.90;;;;;;5054683;28;20100;-74
2023/04/09 05:21:55;;;;;;;0.20;0.20;;;2.40;99.90;;;;;;5034188;28;20021;-74
2023/04/09 05:24:21;;;;;;;0.32;0.32;;;2.40;99.90;;;;;;5033986;28;20021;-74
2023/04/09 05:26:46;;;;;;;0.20;0.20;;;2.50;99.90;;;;;;5034181;28;20399;-74
2023/04/09 05:29:16;;;;;;;0.30;0.30;;;2.50;99.90;;;;;;5047634;28;20021;-74
2023/04/09 05:31:41;;;;;;;0.10;0.10;;;2.50;99.90;;;;;;5054054;28;20478;-74
2023/04/09 05:34:07;;;;;;;0.30;0.30;;;2.60;99.90;;;;;;5031358;28;20037;-74
2023/04/09 05:36:33;;;;;;;0.20;0.20;;;2.60;99.90;;;;;;5034304;28;20076;-74
2023/04/09 05:38:58;;;;;;;0.20;0.20;;;2.60;99.90;;;;;;5036852;28;20029;-74
2023/04/09 05:41:24;;;;;;;0.20;0.20;;;2.60;99.90;;;;;;5034508;28;20025;-74
2023/04/09 05:43:49;;;;;;;0.20;0.20;;;2.60;99.90;;;;;;5036168;28;20738;-74
2023/04/09 05:46:15;;;;;;;0.20;0.20;;;2.70;99.90;;;;;;5034738;28;20025;-74
2023/04/09 05:48:41;;;;;;;0.30;0.30;;;2.70;99.90;;;;;;5034757;28;20021;-74
2023/04/09 05:51:08;;;;;;;0.20;0.20;;;2.70;99.90;;;;;;5016132;28;20037;-74
2023/04/09 05:53:36;;;;;;;0.20;0.20;;;2.80;99.90;;;;;;5033660;28;20071;-74
2023/04/09 05:56:01;;;;;;;0.20;0.20;;;2.90;99.90;;;;;;5016161;28;20028;-74
2023/04/09 05:58:30;;;;;;;0.10;0.10;;;3.10;99.90;;;;;;5016417;28;20018;-74
2023/04/09 06:00:55;;;;;;;0.10;0.10;;;3.10;99.90;;;;;;5033978;28;20518;-74
2023/04/09 06:05:49;;;;;;;0.20;0.20;;;3.30;99.90;;;;;;5052200;28;20049;-74
2023/04/09 06:08:15;;;;;;;0.20;0.20;;;3.30;99.90;;;;;;5052966;28;20032;-74
2023/04/09 06:10:40;;;;;;;0.20;0.20;;;3.40;99.90;;;;;;5053885;28;20052;-73
2023/04/09 06:13:06;;;;;;;0.20;0.20;;;3.50;99.90;;;;;;5036028;28;20017;-74
2023/04/09 06:15:31;;;;;;;0.22;0.22;;;3.60;99.90;;;;;;5048443;28;20022;-74
2023/04/09 06:17:57;;;;;;;0.20;0.20;;;3.70;99.90;;;;;;5026407;28;20391;-74
2023/04/09 06:20:22;;;;;;;0.20;0.20;;;3.80;99.90;;;;;;5033338;28;20025;-74
2023/04/09 06:22:48;;;;;;;0.20;0.20;;;3.90;99.90;;;;;;5045478;28;20471;-74
2023/04/09 06:25:13;;;;;;;0.20;0.20;;;4.10;99.90;;;;;;5053507;28;20388;-74
2023/04/09 06:27:39;;;;;;;0.20;0.20;;;4.20;99.90;;;;;;5053316;28;20492;-74
2023/04/09 06:30:05;;;;;;;0.20;0.20;;;4.30;99.90;;;;;;5051151;28;20601;-74
2023/04/09 06:32:30;;;;;;;0.17;0.17;;;4.40;99.90;;;;;;5051863;28;20025;-75
2023/04/09 06:34:56;;;;;;;0.17;0.17;;;4.50;99.90;;;;;;5052825;28;20040;-74
2023/04/09 06:37:21;;;;;;;0.10;0.10;;;4.60;99.90;;;;;;5053329;28;20056;-74
2023/04/09 06:39:47;;;;;;;0.20;0.20;;;4.70;99.90;;;;;;5053425;28;20040;-75
2023/04/09 06:42:12;;;;;;;0.20;0.20;;;4.90;99.90;;;;;;5053250;28;20040;-75
2023/04/09 06:44:38;;;;;;;0.20;0.20;;;4.90;99.90;;;;;;5053461;28;20041;-75
2023/04/09 06:47:03;;;;;;;0.15;0.15;;;5.00;99.90;;;;;;5053149;28;20387;-75
2023/04/09 06:49:29;;;;;;;0.13;0.13;;;5.00;99.90;;;;;;5053227;28;20036;-75
2023/04/09 06:51:54;;;;;;;0.20;0.20;;;5.10;99.90;;;;;;5035629;28;20021;-76
2023/04/09 06:54:20;;;;;;;0.20;0.20;;;5.30;99.90;;;;;;5053070;28;20018;-75
2023/04/09 06:56:46;;;;;;;0.20;0.20;;;5.40;99.90;;;;;;5035542;28;20480;-76
2023/04/09 06:59:11;;;;;;;0.20;0.20;;;5.50;99.90;;;;;;5052674;28;20017;-76
2023/04/09 07:01:37;;;;;;;0.10;0.10;;;5.50;99.90;;;;;;5053269;28;20375;-75
2023/04/09 07:04:03;;;;;;;0.20;0.20;;;5.50;99.90;;;;;;5052868;28;20126;-75
2023/04/09 07:06:29;;;;;;;0.20;0.20;;;5.50;99.90;;;;;;5053340;28;20495;-75
2023/04/09 07:08:54;;;;;;;0.20;0.20;;;5.60;99.90;;;;;;5053083;28;20052;-75
2023/04/09 07:11:20;;;;;;;0.20;0.20;;;5.70;99.90;;;;;;5053005;28;20501;-76
2023/04/09 07:13:45;;;;;;;0.20;0.20;;;5.70;99.90;;;;;;5102818;22;20052;-76
2023/04/09 07:16:11;;;;;;;0.15;0.15;;;5.80;99.90;;;;;;5053487;28;20037;-76
2023/04/09 07:18:36;;;;;;;0.20;0.20;;;5.90;99.90;;;;;;5055989;28;20033;-76
2023/04/09 07:21:02;;;;;;;0.10;0.10;;;6.00;99.90;;;;;;5039368;28;20037;-75
2023/04/09 07:23:28;;;;;;;0.10;0.10;;;6.10;99.90;;;;;;5036501;28;20104;-75
2023/04/09 07:25:53;;;;;;;0.15;0.15;;;6.10;99.90;;;;;;5021960;28;20575;-75
2023/04/09 07:28:19;;;;;;;0.20;0.20;;;6.20;99.90;;;;;;5036925;28;20030;-76
2023/04/09 07:30:45;;;;;;;0.20;0.20;;;6.30;99.90;;;;;;5041178;28;20083;-76
2023/04/09 07:33:11;;;;;;;0.20;0.20;;;6.40;99.90;;;;;;5036550;28;20039;-75
2023/04/09 07:35:37;;;;;;;0.20;0.20;;;6.50;99.90;;;;;;5037970;28;20486;-76
2023/04/09 07:38:02;;;;;;;0.20;0.20;;;6.60;99.90;;;;;;5048045;28;20116;-76
2023/04/09 07:40:28;;;;;;;0.10;0.10;;;6.70;99.90;;;;;;5039104;28;20029;-75
2023/04/09 07:42:54;;;;;;;0.20;0.20;;;6.90;99.90;;;;;;5038452;28;20410;-76
2023/04/09 07:45:20;;;;;;;0.20;0.20;;;7.10;99.90;;;;;;5054008;28;20078;-76
2023/04/09 07:47:46;;;;;;;0.10;0.10;;;7.30;99.90;;;;;;5056628;28;20033;-76
2023/04/09 07:50:11;;;;;;;0.20;0.20;;;7.40;99.90;;;;;;5056167;28;20021;-76
2023/04/09 07:52:37;;;;;;;0.20;0.20;;;7.60;99.90;;;;;;5056752;28;20433;-76
2023/04/09 07:55:05;;;;;;;0.20;0.20;;;7.80;99.90;;;;;;5055658;28;20033;-76
2023/04/09 07:57:31;;;;;;;0.20;0.20;;;7.80;99.90;;;;;;5051460;28;20028;-76
2023/04/09 07:59:57;;;;;;;0.20;0.20;;;8.00;99.90;;;;;;5056313;28;20049;-76
2023/04/09 08:02:23;;;;;;;0.15;0.15;;;8.10;99.90;;;;;;5038538;28;20482;-76
2023/04/09 08:04:48;;;;;;;0.20;0.20;;;8.00;99.90;;;;;;5055723;28;20490;-76
2023/04/09 08:07:14;;;;;;;0.20;0.20;;;8.00;99.90;;;;;;5038230;28;20390;-76
2023/04/09 08:09:40;;;;;;;0.20;0.20;;;8.00;99.90;;;;;;5038389;28;20074;-76
2023/04/09 08:12:05;;;;;;;0.20;0.20;;;8.00;99.90;;;;;;5055998;28;20025;-76
2023/04/09 08:14:31;;;;;;;0.20;0.20;;;8.00;99.90;;;;;;5056137;28;20036;-76
2023/04/09 08:16:57;;;;;;;0.15;0.15;;;8.00;99.90;;;;;;5055582;28;20029;-76
2023/04/09 08:19:23;;;;;;;0.20;0.20;;;8.00;99.90;;;;;;5055760;28;20029;-76
2023/04/09 08:21:49;;;;;;;0.20;0.20;;;7.90;99.90;;;;;;5056069;28;20028;-76
2023/04/09 08:24:15;;;;;;;0.10;0.10;;;8.00;99.90;;;;;;5088043;22;20033;-76
2023/04/09 08:26:41;;;;;;;0.20;0.20;;;8.00;99.90;;;;;;5055605;28;20017;-76
2023/04/09 08:29:09;;;;;;;0.20;0.20;;;8.00;99.90;;;;;;5054213;28;20017;-76
2023/04/09 08:31:36;;;;;;;0.22;0.22;;;7.90;99.90;;;;;;5054076;28;20119;-76
2023/04/09 08:34:01;;;;;;;0.10;0.10;;;7.80;99.90;;;;;;5075503;28;20104;-76
2023/04/09 08:36:31;;;;;;;0.20;0.20;;;7.80;99.90;;;;;;5057953;28;20048;-75
2023/04/09 08:38:57;;;;;;;0.20;0.20;;;7.70;99.90;;;;;;5035733;28;20056;-75
2023/04/09 08:41:24;;;;;;;0.20;0.20;;;7.80;99.90;;;;;;5035151;28;20053;-76
2023/04/09 08:43:51;;;;;;;0.10;0.10;;;7.80;99.90;;;;;;5100393;22;20041;-76
2023/04/09 08:46:18;;;;;;;0.20;0.20;;;7.80;99.90;;;;;;5037548;28;20094;-77
2023/04/09 08:48:45;;;;;;;0.20;0.20;;;7.80;99.90;;;;;;5055454;28;20032;-75
2023/04/09 08:51:15;;;;;;;0.10;0.10;;;7.80;99.90;;;;;;5055460;28;20057;-76
2023/04/09 08:53:51;;;;;;;0.10;0.10;;;7.80;99.90;;;;;;5054667;28;20029;-76
2023/04/09 08:56:17;;;;;;;0.20;0.20;;;7.80;99.90;;;;;;5041716;28;20022;-76
2023/04/09 08:58:43;;;;;;;0.20;0.20;;;7.90;99.90;;;;;;5035186;28;20175;-76
2023/04/09 09:01:28;;;;;;;0.20;0.20;;;7.90;99.90;;;;;;5045647;28;20048;-76
2023/04/09 09:04:05;;;;;;;0.10;0.10;;;7.80;99.90;;;;;;5024678;28;20025;-76
2023/04/09 09:06:32;;;;;;;0.20;0.20;;;7.90;99.90;;;;;;5017392;28;20032;-75
2023/04/09 09:09:10;;;;;;;0.20;0.20;;;8.00;99.90;;;;;;5034697;28;20026;-76
2023/04/09 09:11:49;;;;;;;0.20;0.20;;;8.10;99.90;;;;;;5017364;28;20546;-76
2023/04/09 09:14:18;;;;;;;0.20;0.20;;;8.20;99.90;;;;;;5039885;28;20402;-75
2023/04/09 09:17:03;;;;;;;0.10;0.10;;;8.50;99.90;;;;;;5036665;28;20028;-76
2023/04/09 09:19:32;;;;;;;0.20;0.20;;;8.60;99.90;;;;;;5054991;28;20025;-76
2023/04/09 09:22:00;;;;;;;0.17;0.17;;;8.70;99.90;;;;;;5037353;28;20071;-76
2023/04/09 09:24:26;;;;;;;0.10;0.10;;;8.80;99.90;;;;;;5052479;28;20052;-76
2023/04/09 09:26:53;;;;;;;0.20;0.20;;;8.90;99.90;;;;;;5054738;28;20021;-76
2023/04/09 09:29:19;;;;;;;0.10;0.10;;;8.70;99.90;;;;;;5036686;28;20031;-76
2023/04/09 09:31:48;;;;;;;0.17;0.17;;;8.70;99.90;;;;;;5039149;28;20394;-76
2023/04/09 09:34:15;;;;;;;0.20;0.20;;;8.70;99.90;;;;;;5091232;22;20041;-76
2023/04/09 09:36:43;;;;;;;0.20;0.20;;;8.70;99.90;;;;;;5037148;28;20026;-76
2023/04/09 09:39:16;;;;;;;0.20;0.20;;;8.70;99.90;;;;;;5034727;28;20029;-76
2023/04/09 09:41:43;;;;;;;0.20;0.20;;;8.60;99.90;;;;;;5034023;28;20029;-76
2023/04/09 09:44:11;;;;;;;0.10;0.10;;;8.80;99.90;;;;;;5034379;28;20045;-76
2023/04/09 09:46:39;;;;;;;0.13;0.13;;;8.90;99.90;;;;;;5048940;28;20032;-76
2023/04/09 09:49:06;;;;;;;0.17;0.17;;;9.10;99.90;;;;;;5036659;28;20025;-76
2023/04/09 09:51:38;;;;;;;0.20;0.20;;;9.20;99.90;;;;;;5054450;28;20032;-77
2023/04/09 09:54:07;;;;;;;0.20;0.20;;;9.50;99.90;;;;;;5048857;28;20931;-77
2023/04/09 09:56:38;;;;;;;0.15;0.15;;;9.80;99.90;;;;;;5041307;28;20013;-76
2023/04/09 09:59:15;;;;;;;0.20;0.20;;;10.00;99.90;;;;;;5054344;28;20041;-77
2023/04/09 10:01:42;;;;;;;0.10;0.10;;;10.20;99.90;;;;;;5054253;28;20029;-76
2023/04/09 10:04:12;;;;;;;0.30;0.30;;;10.10;99.90;;;;;;5053009;28;20040;-76
2023/04/09 10:06:48;;;;;;;0.10;0.10;;;10.10;99.90;;;;;;5036027;28;20027;-76
2023/04/09 10:09:14;;;;;;;0.10;0.10;;;10.30;99.90;;;;;;5033355;28;20079;-76
2023/04/09 10:11:46;;;;;;;0.20;0.20;;;10.50;99.90;;;;;;5015804;28;20029;-76
2023/04/09 10:14:12;;;;;;;0.20;0.20;;;10.50;99.90;;;;;;5022225;28;20372;-76
2023/04/09 10:16:38;;;;;;;0.10;0.10;;;10.60;99.90;;;;;;5035545;28;20082;-76
2023/04/09 10:19:05;;;;;;;0.17;0.17;;;10.50;99.90;;;;;;5053913;28;20475;-76
2023/04/09 10:21:46;;;;;;;0.10;0.10;;;10.50;99.90;;;;;;5051142;28;20029;-77
2023/04/09 10:24:12;;;;;;;0.20;0.20;;;10.90;99.90;;;;;;5053838;28;20483;-76
2023/04/09 10:26:43;;;;;;;0.30;0.30;;;11.10;99.90;;;;;;5049705;28;20029;-76
2023/04/09 10:29:13;;;;;;;0.20;0.20;;;11.30;99.90;;;;;;5015552;28;20057;-76
2023/04/09 10:31:47;;;;;;;0.10;0.10;;;11.30;99.90;;;;;;5018768;28;20112;-77
2023/04/09 10:34:20;;;;;;;0.20;0.20;;;11.60;99.90;;;;;;5035542;28;20033;-76
2023/04/09 10:36:52;;;;;;;0.20;0.20;;;11.80;99.90;;;;;;5049290;28;20041;-77
2023/04/09 10:39:17;;;;;;;0.20;0.20;;;12.20;99.90;;;;;;5016250;28;20083;-77
2023/04/09 10:41:45;;;;;;;0.10;0.10;;;12.40;99.90;;;;;;5015469;28;20029;-76
2023/04/09 10:44:24;;;;;;;0.17;0.17;;;12.90;99.90;;;;;;5089197;23;20608;-76
2023/04/09 10:46:53;;;;;;;0.20;0.20;;;13.20;99.90;;;;;;5036009;28;20013;-76
2023/04/09 10:49:26;;;;;;;0.20;0.20;;;13.70;99.90;;;;;;5054496;28;20070;-77
2023/04/09 10:52:10;;;;;;;0.20;0.20;;;14.20;99.90;;;;;;5037622;28;20036;-77
2023/04/09 10:54:42;;;;;;;;;;;14.50;99.90;;;;;;5055239;28;20025;-76
2023/04/09 10:57:18;;;;;;;0.10;0.10;;;14.40;99.90;;;;;;5021156;28;19905;-76
2023/04/09 10:59:47;;;;;;;0.20;0.20;;;14.40;99.90;;;;;;5038839;28;20075;-76
2023/04/09 11:02:38;;;;;;;0.10;0.10;;;14.50;99.90;;;;;;5057532;28;20398;-77
2023/04/09 11:05:27;;;;;;;0.13;0.13;;;14.60;99.90;;;;;;5065683;23;20037;-76
2023/04/09 11:08:09;;;;;;;0.10;0.10;;;15.00;99.90;;;;;;5059308;28;20028;-77
2023/04/09 11:10:36;;;;;;;0.15;0.15;;;14.80;99.90;;;;;;5050699;28;20030;-76
2023/04/09 11:13:02;;;;;;;0.15;0.15;;;14.70;99.90;;;;;;5039883;28;20033;-77
2023/04/09 11:15:35;;;;;;;0.20;0.20;;;14.80;99.90;;;;;;5038095;28;20025;-78
2023/04/09 11:18:05;;;;;;;0.10;0.10;;;15.10;99.90;;;;;;5028488;28;20025;-76
2023/04/09 11:20:33;;;;;;;0.10;0.10;;;15.50;99.90;;;;;;5044470;28;20057;-78
2023/04/09 11:22:59;;;;;;;0.10;0.10;;;15.50;99.90;;;;;;5037546;28;20026;-79
2023/04/09 11:25:27;;;;;;;0.10;0.10;;;15.30;99.90;;;;;;5020495;28;20079;-79
2023/04/09 11:27:53;;;;;;;0.10;0.10;;;15.70;99.90;;;;;;5020287;28;20026;-79
2023/04/09 11:30:19;;;;;;;0.10;0.10;;;16.10;99.90;;;;;;5039650;28;20421;-78
2023/04/09 11:32:46;;;;;;;0.20;0.20;;;16.40;99.90;;;;;;5039962;28;20104;-79
2023/04/09 11:35:20;;;;;;;0.15;0.15;;;16.50;99.90;;;;;;5036837;28;20022;-80
2023/04/09 11:37:46;;;;;;;0.10;0.10;;;16.70;99.90;;;;;;5055797;28;20445;-79
2023/04/09 11:40:19;;;;;;;0.20;0.20;;;16.80;99.90;;;;;;5057085;28;20022;-78
2023/04/09 11:42:47;;;;;;;0.20;0.20;;;16.70;99.90;;;;;;5048961;28;20041;-78
2023/04/09 11:45:14;;;;;;;0.10;0.10;;;16.80;99.90;;;;;;5019942;28;20096;-79
2023/04/09 11:47:41;;;;;;;0.20;0.20;;;16.90;99.90;;;;;;5022406;28;20068;-78
2023/04/09 11:50:07;;;;;;;0.17;0.17;;;17.20;99.90;;;;;;5057981;28;20021;-78
2023/04/09 11:52:34;;;;;;;0.10;0.10;;;17.70;99.90;;;;;;5057398;28;20025;-79
2023/04/09 11:55:02;;;;;;;0.10;0.10;;;18.10;99.90;;;;;;5056078;28;20494;-79
2023/04/09 11:57:45;;;;;;;0.20;0.20;;;18.50;99.90;;;;;;5045137;28;20109;-80
2023/04/09 12:00:15;;;;;;;0.10;0.10;;;18.90;99.90;;;;;;5027787;28;20026;-79
2023/04/09 12:02:46;;;;;;;0.10;0.10;;;19.20;99.90;;;;;;5039097;28;20053;-78
2023/04/09 12:05:20;;;;;;;0.10;0.10;;;19.70;99.90;;;;;;5042689;28;20167;-80
2023/04/09 12:07:46;;;;;;;0.10;0.10;;;20.20;99.90;;;;;;5061012;28;20175;-80
2023/04/09 12:10:12;;;;;;;0.13;0.13;;;20.20;99.90;;;;;;5060386;28;20107;-79
2023/04/09 12:12:46;;;;;;;0.10;0.10;;;20.20;99.90;;;;;;5068491;28;20024;-79
2023/04/09 12:15:22;;;;;;;0.10;0.10;;;20.50;99.90;;;;;;5083886;22;20072;-73
2023/04/09 12:17:53;;;;;;;0.10;0.10;;;20.80;99.90;;;;;;5056122;28;20033;-74
2023/04/09 12:20:27;;;;;;;0.10;0.10;;;21.00;99.90;;;;;;5056075;28;20478;-73
2023/04/09 12:22:53;;;;;;;0.05;0.05;;;21.30;99.90;;;;;;5055312;28;20029;-73
2023/04/09 12:25:18;;;;;;;0.10;0.10;;;21.50;99.90;;;;;;5055710;28;20037;-73
2023/04/09 12:27:44;;;;;;;0.00;0.00;;;22.10;99.90;;;;;;5056187;28;20108;-74
2023/04/09 12:30:10;;;;;;;0.10;0.10;;;22.10;99.90;;;;;;5055927;28;20098;-74
2023/04/09 12:32:35;;;;;;;0.00;0.00;;;21.40;99.90;;;;;;5056151;28;20398;-73
2023/04/09 12:35:01;;;;;;;0.10;0.10;;;21.30;99.90;;;;;;5037605;28;20029;-73
2023/04/09 12:37:27;;;;;;;0.10;0.10;;;20.50;99.90;;;;;;5037326;28;20391;-73
2023/04/09 12:39:53;;;;;;;0.10;0.10;;;20.20;99.90;;;;;;5055805;28;20017;-73
2023/04/09 12:42:18;;;;;;;0.08;0.08;;;20.30;99.90;;;;;;5055989;28;20021;-74
2023/04/09 12:44:44;;;;;;;0.10;0.10;;;20.60;99.90;;;;;;5055540;28;20025;-73
2023/04/09 12:47:09;;;;;;;0.10;0.10;;;21.00;99.90;;;;;;5037522;28;20021;-73
2023/04/09 12:49:35;;;;;;;0.10;0.10;;;21.10;99.90;;;;;;5055331;28;20021;-73
2023/04/09 12:52:00;;;;;;;0.10;0.10;;;20.50;99.90;;;;;;5055105;28;20398;-73
2023/04/09 12:54:26;;;;;;;0.00;0.00;;;20.10;99.90;;;;;;5055121;28;20359;-73
2023/04/09 12:56:52;;;;;;;0.10;0.10;;;20.50;99.90;;;;;;5037215;28;20017;-74
2023/04/09 12:59:17;;;;;;;0.08;0.08;;;21.50;99.90;;;;;;5054940;28;20241;-74
2023/04/09 13:01:43;;;;;;;0.00;0.00;;;22.30;99.90;;;;;;5055521;28;20025;-73